Latest Weather Observations for Norseman Airport

IDW60801

Issued at 1:32 pm WST Thursday 30 July 2015 (issued every 30 minutes, with the page automatically refreshed every 10 minutes)

About weather observations | Map of weather stations | Latest weather observations for WA | Other Formats
Station Details ID: 012009 Name: NORSEMAN AERO Lat: -32.21 Lon: 121.75 Height: 262.5 m
Data from the previous 72 hours. | See also: Recent months at Norseman Airport
Date/Time
WST
Temp
°C
App
Temp
°C
Dew
Point
Rel
Hum
%
Delta-T
°C
Wind Press
QNH
hPa
Press
MSL
hPa
Rain
since 9 am
mm
Dir
 
Spd
km/h
Gust
km/h
Spd
kts
Gust
kts
30/01:30pm 18.5 16.5 12.7 69 3.3 N 15 20 8 11 1021.3 1021.5 0.0
30/01:00pm 18.5 16.8 12.5 68 3.4 N 13 20 7 11 1021.8 1022.0 0.0
30/12:30pm 18.6 17.0 12.8 69 3.3 N 13 19 7 10 1022.0 1022.2 0.0
30/12:00pm 18.4 17.1 12.6 69 3.3 N 11 15 6 8 1022.4 1022.6 0.0
30/11:30am 18.3 17.4 12.5 69 3.3 NNW 9 13 5 7 1022.7 1023.0 0.0
30/11:00am 18.0 17.5 12.7 71 3.0 NNE 7 15 4 8 1022.7 1023.0 0.0
30/10:30am 16.9 15.9 12.4 75 2.5 ESE 9 11 5 6 1023.3 1023.5 0.0
30/10:00am 15.6 15.7 14.5 93 0.6 W 7 11 4 6 1023.4 1023.6 0.0
30/09:30am 14.6 14.8 14.6 100 0.0 WSW 7 9 4 5 1023.3 1023.5 0.0
30/09:00am 12.8 13.7 12.8 100 0.0 CALM 0 6 0 3 1023.7 1023.9 0.0
30/08:30am 11.6 10.8 11.6 100 0.0 NW 7 9 4 5 1023.7 1023.9 0.0
30/08:00am 10.8 10.3 10.8 100 0.0 ENE 4 7 2 4 1022.8 1023.1 0.0
30/07:30am 9.1 8.9 9.1 100 0.0 CALM 0 0 0 0 1022.7 1023.0 0.0
30/07:00am 8.4 6.9 8.4 100 0.0 W 6 9 3 5 1022.5 1022.7 0.0
30/06:30am 9.1 8.5 9.1 100 0.0 SE 2 7 1 4 1021.9 1022.1 0.0
30/06:00am 9.0 7.1 9.0 100 0.0 SSE 9 9 5 5 1021.7 1021.9 0.0
30/05:30am 8.4 6.9 8.4 100 0.0 SSE 6 7 3 4 1021.7 1021.9 0.0
30/05:00am 8.9 7.5 8.9 100 0.0 WSW 6 7 3 4 1021.7 1021.9 0.0
30/04:30am 8.8 7.2 8.8 100 0.0 SE 7 7 4 4 1021.3 1021.5 0.0
30/04:00am 9.5 8.3 9.5 100 0.0 SSE 6 7 3 4 1021.4 1021.6 0.0
30/03:30am 10.4 9.4 10.4 100 0.0 SSE 6 7 3 4 1021.3 1021.5 0.0
30/03:00am 11.2 9.5 11.2 100 0.0 S 11 13 6 7 1021.2 1021.4 0.0
30/02:30am 10.2 8.9 10.0 99 0.1 S 7 9 4 5 1021.1 1021.3 0.0
30/02:00am 10.4 9.4 10.2 99 0.1 SSW 6 9 3 5 1021.0 1021.2 0.0
30/01:30am 11.4 10.1 11.2 99 0.1 S 9 11 5 6 1021.1 1021.3 0.0
30/01:00am 11.4 10.1 11.2 99 0.1 S 9 11 5 6 1020.7 1020.9 0.0
30/12:30am 11.0 10.1 10.8 99 0.1 SSE 6 9 3 5 1021.0 1021.2 0.0
30/12:00am 11.2 11.1 10.9 98 0.2 S 2 9 1 5 1020.7 1020.9 0.0
 
Date/Time
WST
Temp
°C
App
Temp
°C
Dew
Point
Rel
Hum
%
Delta-T
°C
Wind Press
QNH
hPa
Press
MSL
hPa
Rain
since 9 am
mm
Dir
 
Spd
km/h
Gust
km/h
Spd
kts
Gust
kts
29/11:30pm 12.1 12.6 11.5 96 0.3 CALM 0 0 0 0 1020.8 1021.0 0.0
29/11:00pm 12.8 13.4 11.9 94 0.5 CALM 0 0 0 0 1021.0 1021.2 0.0
29/10:30pm 13.1 11.9 11.5 90 0.9 W 9 9 5 5 1020.9 1021.1 0.0
29/10:00pm 14.5 12.7 12.0 85 1.4 SSW 13 17 7 9 1020.7 1020.9 0.0
29/09:30pm 14.2 13.3 12.6 90 0.9 SW 9 11 5 6 1020.8 1021.0 0.0
29/09:00pm 14.4 12.4 12.8 90 0.9 SW 15 17 8 9 1020.6 1020.8 0.0
29/08:30pm 14.7 13.1 12.9 89 1.0 WSW 13 15 7 8 1020.2 1020.4 0.0
29/08:00pm 15.2 14.7 12.5 84 1.5 SW 7 9 4 5 1019.8 1020.0 0.0
29/07:30pm 16.3 15.1 12.7 79 2.0 SSW 11 13 6 7 1019.5 1019.7 0.0
29/07:00pm 16.9 15.6 12.6 76 2.4 SW 11 15 6 8 1019.5 1019.7 0.0
29/06:30pm 16.9 15.7 12.8 77 2.3 SSW 11 15 6 8 1018.7 1018.9 0.0
29/06:00pm 16.9 16.5 12.4 75 2.5 SW 6 7 3 4 1018.3 1018.5 0.0
29/05:30pm 17.2 15.5 12.5 74 2.6 SW 13 15 7 8 1018.4 1018.6 0.0
29/05:00pm 18.3 16.0 13.0 71 3.0 SW 17 20 9 11 1018.4 1018.6 0.0
29/04:30pm 19.2 17.0 13.4 69 3.3 WSW 17 22 9 12 1018.0 1018.2 0.0
29/04:00pm 20.1 17.5 13.3 65 3.9 WSW 19 24 10 13 1017.6 1017.8 0.0
29/03:30pm 20.4 17.1 12.9 62 4.3 W 22 32 12 17 1017.4 1017.6 0.0
29/03:00pm 21.2 18.4 13.1 60 4.7 W 20 24 11 13 1017.1 1017.3 0.0
29/02:30pm 20.2 17.5 13.4 65 3.9 WNW 20 26 11 14 1016.9 1017.1 0.0
29/02:00pm 21.2 19.5 14.6 66 3.9 W 17 26 9 14 1016.8 1017.0 0.0
29/01:30pm 20.4 18.5 14.3 68 3.6 W 17 24 9 13 1016.9 1017.1 0.0
29/01:00pm 19.7 17.6 14.7 73 2.9 WSW 19 22 10 12 1017.2 1017.4 0.0
29/12:30pm 19.5 17.9 15.0 75 2.7 WSW 17 22 9 12 1017.6 1017.8 0.0
29/12:00pm 18.8 16.4 15.3 80 2.1 WNW 22 32 12 17 1017.9 1018.1 0.0
29/11:30am 17.6 15.4 14.9 84 1.6 W 20 28 11 15 1018.2 1018.4 0.0
29/11:00am 17.0 15.7 16.8 99 0.1 WNW 19 28 10 15 1018.6 1018.8 0.0
29/10:30am 15.9 16.2 15.9 100 0.0 WSW 9 13 5 7 1018.9 1019.1 0.0
29/10:00am 15.1 15.1 15.1 100 0.0 SW 9 13 5 7 1019.2 1019.3 0.0
29/09:30am 14.3 13.6 14.3 100 0.0 SW 11 13 6 7 1019.0 1019.2 0.0
29/09:00am 13.8 13.7 13.8 100 0.0 SW 7 9 4 5 1018.9 1019.1 7.0
29/08:30am 12.9 13.8 12.9 100 0.0 CALM 0 0 0 0 1018.8 1019.0 7.0
29/08:00am 12.5 13.3 12.5 100 0.0 CALM 0 0 0 0 1018.6 1018.8 6.8
29/07:30am 12.1 12.8 12.1 100 0.0 CALM 0 0 0 0 1018.1 1018.3 6.8
29/07:00am 11.7 12.2 11.7 100 0.0 CALM 0 0 0 0 1018.0 1018.2 6.8
29/06:30am 11.5 12.0 11.5 100 0.0 CALM 0 0 0 0 1017.7 1017.9 6.6
29/06:00am 11.6 12.1 11.6 100 0.0 CALM 0 0 0 0 1017.4 1017.6 6.6
29/05:30am 11.5 10.8 11.5 100 0.0 NNE 6 6 3 3 1016.9 1017.1 6.6
29/05:00am 11.2 10.8 11.2 100 0.0 NNE 4 9 2 5 1016.6 1016.8 6.6
29/04:30am 11.3 10.6 11.3 100 0.0 NNE 6 7 3 4 1016.6 1016.8 6.6
29/04:00am 11.4 10.5 11.4 100 0.0 NE 7 9 4 5 1016.7 1016.9 6.6
29/03:30am 11.3 10.4 11.3 100 0.0 NE 7 9 4 5 1016.8 1017.0 6.6
29/03:00am 11.1 9.8 11.1 100 0.0 NNE 9 11 5 6 1016.9 1017.1 6.6
29/02:30am 10.8 9.7 10.8 100 0.0 NNE 7 7 4 4 1016.9 1017.1 6.4
29/02:00am 10.6 9.1 10.6 100 0.0 NNE 9 11 5 6 1017.2 1017.4 6.0
29/01:30am 10.4 8.9 10.4 100 0.0 NNE 9 11 5 6 1017.5 1017.7 5.8
29/01:00am 10.3 9.3 10.3 100 0.0 NNE 6 9 3 5 1017.7 1017.9 5.8
29/12:30am 10.2 8.9 10.0 99 0.1 NE 7 9 4 5 1017.6 1017.8 5.6
29/12:00am 10.1 8.4 9.9 99 0.1 NE 9 13 5 7 1017.9 1018.1 4.8
 
Date/Time
WST
Temp
°C
App
Temp
°C
Dew
Point
Rel
Hum
%
Delta-T
°C
Wind Press
QNH
hPa
Press
MSL
hPa
Rain
since 9 am
mm
Dir
 
Spd
km/h
Gust
km/h
Spd
kts
Gust
kts
28/11:30pm 10.0 7.6 9.9 99 0.1 NNE 13 17 7 9 1018.3 1018.5 4.4
28/11:00pm 10.2 7.4 10.0 99 0.1 NNE 15 17 8 9 1018.8 1019.0 4.0
28/10:30pm 10.1 8.2 9.2 94 0.5 NNE 9 13 5 7 1019.0 1019.2 3.4
28/10:00pm 10.4 6.5 8.7 89 0.8 NNE 19 24 10 13 1018.9 1019.1 2.4
28/09:30pm 10.3 7.4 8.1 86 1.1 NNE 13 19 7 10 1019.4 1019.5 2.4
28/09:00pm 10.4 6.1 8.0 85 1.2 NE 20 24 11 13 1018.3 1018.5 2.4
28/08:30pm 10.4 6.3 8.0 85 1.2 NNE 19 28 10 15 1019.6 1019.8 2.4
28/08:00pm 10.3 6.3 8.2 87 1.0 NNE 19 22 10 12 1019.8 1020.0 2.4
28/07:30pm 10.1 6.5 8.2 88 0.9 NNE 17 20 9 11 1019.8 1020.0 2.4
28/07:00pm 10.1 5.9 8.4 89 0.8 NNE 20 24 11 13 1019.8 1020.0 2.4
28/06:30pm 10.1 4.5 8.7 91 0.7 NNE 28 35 15 19 1019.8 1020.0 2.4
28/06:00pm 10.2 5.5 9.1 93 0.6 NNE 24 32 13 17 1020.2 1020.4 2.4
28/05:30pm 10.1 5.8 9.3 95 0.4 NNE 22 30 12 16 1020.1 1020.3 2.2
28/05:00pm 10.5 6.9 9.7 95 0.4 N 19 22 10 12 1021.1 1021.3 1.8
28/04:30pm 10.9 7.1 9.2 89 0.9 N 19 24 10 13 1021.0 1021.2 1.0
28/04:00pm 11.0 9.2 7.9 81 1.5 NE 7 9 4 5 1020.4 1020.6 0.6
28/03:30pm 11.7 8.9 7.0 73 2.3 NE 11 15 6 8 1020.3 1020.5 0.2
28/03:00pm 13.0 8.2 4.9 58 3.8 NNE 19 22 10 12 1020.6 1020.8 0.0
28/02:30pm 13.5 8.5 3.8 52 4.5 NNE 19 24 10 13 1020.5 1020.7 0.0
28/02:00pm 13.2 8.0 3.8 53 4.3 N 20 26 11 14 1021.1 1021.3 0.0
28/01:30pm 13.0 7.4 3.7 53 4.2 NNE 22 30 12 16 1021.2 1021.4 0.0
28/01:00pm 13.1 7.1 3.5 52 4.3 N 24 28 13 15 1022.0 1022.2 0.0
28/12:30pm 12.7 7.5 3.4 53 4.2 N 20 28 11 15 1022.4 1022.6 0.0
28/12:00pm 12.5 7.5 3.5 54 4.1 NNE 19 26 10 14 1022.8 1023.1 0.0
28/11:30am 12.4 6.8 3.6 55 4.0 NNE 22 30 12 16 1023.7 1023.9 0.0
28/11:00am 12.0 6.4 3.3 55 3.9 NNE 22 28 12 15 1024.6 1024.8 0.0
28/10:30am 11.8 6.3 3.8 58 3.6 NNE 22 30 12 16 1025.3 1025.5 0.0
28/10:00am 11.6 6.6 3.6 58 3.6 NNE 19 24 10 13 1025.9 1026.2 0.0
28/09:30am 10.9 5.7 3.5 60 3.3 NNE 20 28 11 15 1025.8 1026.0 0.0
28/09:00am 10.4 5.4 3.4 62 3.1 NNE 19 22 10 12 1026.2 1026.5 0.0
28/08:30am 9.7 5.0 3.2 64 2.8 NNE 17 20 9 11 1026.8 1027.1 0.0
28/08:00am 9.0 4.3 3.2 67 2.5 N 17 19 9 10 1027.2 1027.4 0.0
28/07:30am 9.1 4.4 3.1 66 2.6 NNE 17 20 9 11 1027.3 1027.5 0.0
28/07:00am 8.7 4.8 3.3 69 2.3 NNE 13 20 7 11 1026.8 1027.1 0.0
28/06:30am 7.8 3.7 2.5 69 2.2 N 13 19 7 10 1027.2 1027.4 0.0
28/06:00am 8.7 3.4 2.9 67 2.5 NNE 20 24 11 13 1026.8 1027.1 0.0
28/05:30am 8.5 3.7 2.7 67 2.5 NE 17 24 9 13 1026.9 1027.2 0.0
28/05:00am 8.4 4.0 2.6 67 2.5 NE 15 19 8 10 1027.3 1027.5 0.0
28/04:30am 8.4 3.6 2.6 67 2.5 NE 17 20 9 11 1026.4 1026.7 0.0
28/04:00am 8.2 3.9 3.3 71 2.1 NE 15 19 8 10 1026.6 1026.9 0.0
28/03:30am 6.2 2.8 2.1 75 1.7 N 9 9 5 5 1027.0 1027.3 0.0
28/03:00am 6.3 3.5 2.0 74 1.8 NNE 6 7 3 4 1027.4 1027.6 0.0
28/02:30am 6.6 3.6 2.3 74 1.8 NNE 7 9 4 5 1027.6 1027.8 0.0
28/02:00am 6.9 3.9 2.2 72 1.9 NNE 7 11 4 6 1027.9 1028.1 0.0
28/01:30am 7.5 3.4 2.2 69 2.2 N 13 17 7 9 1028.2 1028.4 0.0
28/01:00am 8.3 3.4 2.1 65 2.6 N 17 20 9 11 1028.3 1028.5 0.0
28/12:30am 9.3 4.6 2.9 64 2.8 N 17 20 9 11 1028.1 1028.3 0.0
28/12:00am 10.8 5.5 2.9 58 3.4 NNE 20 28 11 15 1028.2 1028.4 0.0
 
Date/Time
WST
Temp
°C
App
Temp
°C
Dew
Point
Rel
Hum
%
Delta-T
°C
Wind Press
QNH
hPa
Press
MSL
hPa
Rain
since 9 am
mm
Dir
 
Spd
km/h
Gust
km/h
Spd
kts
Gust
kts
27/11:30pm 10.6 6.2 2.7 58 3.5 NE 15 24 8 13 1028.3 1028.5 0.0
27/11:00pm 11.2 5.9 3.0 57 3.6 NE 20 26 11 14 1028.3 1028.5 0.0
27/10:30pm 11.3 6.0 3.1 57 3.6 NE 20 28 11 15 1028.5 1028.7 0.0
27/10:00pm 12.0 6.0 3.3 55 3.9 NE 24 32 13 17 1028.9 1029.1 0.0
27/09:30pm 12.2 6.6 3.4 55 4.0 NE 22 30 12 16 1029.3 1029.6 0.0
27/09:00pm 12.3 7.7 3.5 55 3.9 NE 17 22 9 12 1029.7 1030.0 0.0
27/08:30pm 12.4 7.4 3.6 55 4.0 NE 19 22 10 12 1030.0 1030.3 0.0
27/08:00pm 9.1 5.9 2.9 65 2.7 NE 9 13 5 7 1030.1 1030.4 0.0
27/07:30pm 11.1 7.2 3.2 58 3.5 NE 13 17 7 9 1030.1 1030.4 0.0
27/07:00pm 10.3 6.3 3.1 61 3.1 ENE 13 17 7 9 1029.9 1030.2 0.0
27/06:30pm 10.1 6.5 2.7 60 3.2 NE 11 13 6 7 1029.7 1030.0 0.0
27/06:00pm 11.1 7.5 2.9 57 3.6 ENE 11 15 6 8 1029.0 1029.2 0.0
27/05:30pm 12.8 9.6 3.2 52 4.3 NE 9 11 5 6 1029.1 1029.4 0.0
27/05:00pm 14.3 10.0 3.2 47 5.0 NNE 15 19 8 10 1029.4 1029.7 0.0
27/04:30pm 15.6 10.6 3.4 44 5.7 NNE 19 24 10 13 1029.3 1029.6 0.0
27/04:00pm 15.9 11.2 3.4 43 5.8 NNE 17 24 9 13 1029.2 1029.5 0.0
27/03:30pm 16.2 11.0 3.3 42 6.0 NE 20 26 11 14 1029.1 1029.4 0.0
27/03:00pm 16.3 11.4 4.0 44 5.8 NNE 19 28 10 15 1029.5 1029.8 0.0
27/02:30pm 15.7 11.1 3.8 45 5.6 NNE 17 24 9 13 1030.2 1030.5 0.0
27/02:00pm 16.2 12.2 4.9 47 5.4 N 15 22 8 12 1030.4 1030.7 0.0

Other Formats:

Comma delimited format used in spreadsheet applications
http://www.bom.gov.au/fwo/IDW60801/IDW60801.95642.axf

JavaScript Object Notation format (JSON) in row-major order
http://www.bom.gov.au/fwo/IDW60801/IDW60801.95642.json